sensor_id;sensor_type;location;lat;lon;timestamp;P1;durP1;ratioP1;P2;durP2;ratioP2
14346;SDS011;7257;52.158;9.968;2023-03-01T00:00:07;11.85;;;9.10;;
14346;SDS011;7257;52.158;9.968;2023-03-01T00:00:30;11.13;;;9.02;;
14346;SDS011;7257;52.158;9.968;2023-03-01T00:00:51;11.52;;;9.38;;
14346;SDS011;7257;52.158;9.968;2023-03-01T00:01:12;11.73;;;9.10;;
14346;SDS011;7257;52.158;9.968;2023-03-01T00:01:34;12.40;;;9.55;;
14346;SDS011;7257;52.158;9.968;2023-03-01T00:01:55;11.95;;;9.30;;
14346;SDS011;7257;52.158;9.968;2023-03-01T00:02:16;14.15;;;10.20;;
14346;SDS011;7257;52.158;9.968;2023-03-01T00:02:37;14.57;;;10.37;;
14346;SDS011;7257;52.158;9.968;2023-03-01T00:02:58;15.80;;;9.97;;
14346;SDS011;7257;52.158;9.968;2023-03-01T00:03:19;14.32;;;9.52;;
14346;SDS011;7257;52.158;9.968;2023-03-01T00:03:41;13.10;;;9.02;;
14346;SDS011;7257;52.158;9.968;2023-03-01T00:04:02;10.57;;;8.70;;
14346;SDS011;7257;52.158;9.968;2023-03-01T00:04:23;11.57;;;8.70;;
14346;SDS011;7257;52.158;9.968;2023-03-01T00:04:44;11.32;;;8.65;;
14346;SDS011;7257;52.158;9.968;2023-03-01T00:05:06;11.20;;;8.98;;
14346;SDS011;7257;52.158;9.968;2023-03-01T00:05:27;10.52;;;8.75;;
14346;SDS011;7257;52.158;9.968;2023-03-01T00:05:50;12.30;;;9.32;;
14346;SDS011;7257;52.158;9.968;2023-03-01T00:06:10;13.35;;;9.32;;
14346;SDS011;7257;52.158;9.968;2023-03-01T00:06:33;13.07;;;9.25;;
14346;SDS011;7257;52.158;9.968;2023-03-01T00:06:54;12.70;;;9.10;;
14346;SDS011;7257;52.158;9.968;2023-03-01T00:07:15;11.70;;;9.00;;
14346;SDS011;7257;52.158;9.968;2023-03-01T00:07:35;10.73;;;8.90;;
14346;SDS011;7257;52.158;9.968;2023-03-01T00:07:57;10.73;;;8.85;;
14346;SDS011;7257;52.158;9.968;2023-03-01T00:08:18;12.18;;;9.27;;
14346;SDS011;7257;52.158;9.968;2023-03-01T00:08:39;12.57;;;9.43;;
14346;SDS011;7257;52.158;9.968;2023-03-01T00:09:00;11.93;;;9.43;;
14346;SDS011;7257;52.158;9.968;2023-03-01T00:09:21;10.65;;;9.23;;
14346;SDS011;7257;52.158;9.968;2023-03-01T00:09:43;11.00;;;8.88;;
14346;SDS011;7257;52.158;9.968;2023-03-01T00:10:06;11.65;;;8.40;;
14346;SDS011;7257;52.158;9.968;2023-03-01T00:10:27;12.90;;;8.85;;
14346;SDS011;7257;52.158;9.968;2023-03-01T00:10:48;11.60;;;8.73;;
14346;SDS011;7257;52.158;9.968;2023-03-01T00:11:10;12.40;;;8.65;;
14346;SDS011;7257;52.158;9.968;2023-03-01T00:11:33;12.70;;;8.32;;
14346;SDS011;7257;52.158;9.968;2023-03-01T00:11:54;12.25;;;8.50;;
14346;SDS011;7257;52.158;9.968;2023-03-01T00:12:15;11.27;;;8.50;;
14346;SDS011;7257;52.158;9.968;2023-03-01T00:12:37;11.63;;;8.73;;
14346;SDS011;7257;52.158;9.968;2023-03-01T00:12:57;12.82;;;8.68;;
14346;SDS011;7257;52.158;9.968;2023-03-01T00:13:18;13.05;;;8.85;;
14346;SDS011;7257;52.158;9.968;2023-03-01T00:13:39;11.77;;;8.90;;
14346;SDS011;7257;52.158;9.968;2023-03-01T00:14:02;11.10;;;8.65;;
14346;SDS011;7257;52.158;9.968;2023-03-01T00:14:26;11.05;;;8.90;;
14346;SDS011;7257;52.158;9.968;2023-03-01T00:14:47;12.02;;;8.98;;
14346;SDS011;7257;52.158;9.968;2023-03-01T00:15:08;12.15;;;9.27;;
14346;SDS011;7257;52.158;9.968;2023-03-01T00:15:29;13.43;;;9.48;;
14346;SDS011;7257;52.158;9.968;2023-03-01T00:15:50;12.68;;;9.02;;
14346;SDS011;7257;52.158;9.968;2023-03-01T00:16:11;12.03;;;9.40;;
14346;SDS011;7257;52.158;9.968;2023-03-01T00:16:36;12.48;;;9.10;;
14346;SDS011;7257;52.158;9.968;2023-03-01T00:16:59;11.90;;;9.15;;
14346;SDS011;7257;52.158;9.968;2023-03-01T00:17:20;10.85;;;8.90;;
14346;SDS011;7257;52.158;9.968;2023-03-01T00:17:42;9.68;;;8.65;;
14346;SDS011;7257;52.158;9.968;2023-03-01T00:18:03;10.27;;;8.95;;
14346;SDS011;7257;52.158;9.968;2023-03-01T00:18:24;10.05;;;8.50;;
14346;SDS011;7257;52.158;9.968;2023-03-01T00:18:45;9.77;;;7.82;;
14346;SDS011;7257;52.158;9.968;2023-03-01T00:19:08;11.27;;;8.65;;
14346;SDS011;7257;52.158;9.968;2023-03-01T00:19:32;12.52;;;9.00;;
14346;SDS011;7257;52.158;9.968;2023-03-01T00:19:52;12.63;;;9.07;;
14346;SDS011;7257;52.158;9.968;2023-03-01T00:20:13;11.68;;;8.50;;
14346;SDS011;7257;52.158;9.968;2023-03-01T00:20:35;10.80;;;8.80;;
14346;SDS011;7257;52.158;9.968;2023-03-01T00:20:57;10.65;;;8.05;;
14346;SDS011;7257;52.158;9.968;2023-03-01T00:21:19;10.60;;;8.10;;
14346;SDS011;7257;52.158;9.968;2023-03-01T00:21:41;9.43;;;8.00;;
14346;SDS011;7257;52.158;9.968;2023-03-01T00:22:03;11.10;;;8.48;;
14346;SDS011;7257;52.158;9.968;2023-03-01T00:22:26;11.18;;;8.70;;
14346;SDS011;7257;52.158;9.968;2023-03-01T00:22:48;11.40;;;8.65;;
14346;SDS011;7257;52.158;9.968;2023-03-01T00:23:09;9.68;;;7.93;;
14346;SDS011;7257;52.158;9.968;2023-03-01T00:23:29;10.00;;;7.70;;
14346;SDS011;7257;52.158;9.968;2023-03-01T00:23:52;9.85;;;7.40;;
14346;SDS011;7257;52.158;9.968;2023-03-01T00:24:13;9.57;;;7.80;;
14346;SDS011;7257;52.158;9.968;2023-03-01T00:24:34;9.90;;;8.45;;
14346;SDS011;7257;52.158;9.968;2023-03-01T00:24:56;9.65;;;8.35;;
14346;SDS011;7257;52.158;9.968;2023-03-01T00:25:17;11.38;;;8.52;;
14346;SDS011;7257;52.158;9.968;2023-03-01T00:25:40;11.05;;;8.20;;
14346;SDS011;7257;52.158;9.968;2023-03-01T00:26:01;12.30;;;8.27;;
14346;SDS011;7257;52.158;9.968;2023-03-01T00:26:26;11.10;;;7.90;;
14346;SDS011;7257;52.158;9.968;2023-03-01T00:26:48;11.65;;;8.07;;
14346;SDS011;7257;52.158;9.968;2023-03-01T00:27:13;10.23;;;7.80;;
14346;SDS011;7257;52.158;9.968;2023-03-01T00:27:34;8.75;;;7.53;;
14346;SDS011;7257;52.158;9.968;2023-03-01T00:27:54;8.60;;;7.63;;
14346;SDS011;7257;52.158;9.968;2023-03-01T00:28:15;9.55;;;8.02;;
14346;SDS011;7257;52.158;9.968;2023-03-01T00:28:38;10.35;;;8.40;;
14346;SDS011;7257;52.158;9.968;2023-03-01T00:28:59;10.68;;;8.18;;
14346;SDS011;7257;52.158;9.968;2023-03-01T00:29:20;10.85;;;8.10;;
14346;SDS011;7257;52.158;9.968;2023-03-01T00:29:41;11.43;;;8.43;;
14346;SDS011;7257;52.158;9.968;2023-03-01T00:30:03;10.60;;;8.75;;
14346;SDS011;7257;52.158;9.968;2023-03-01T00:30:25;10.52;;;9.13;;
14346;SDS011;7257;52.158;9.968;2023-03-01T00:30:46;10.20;;;9.10;;
14346;SDS011;7257;52.158;9.968;2023-03-01T00:31:08;10.10;;;8.65;;
14346;SDS011;7257;52.158;9.968;2023-03-01T00:31:31;10.00;;;8.00;;
14346;SDS011;7257;52.158;9.968;2023-03-01T00:31:54;9.20;;;7.45;;
14346;SDS011;7257;52.158;9.968;2023-03-01T00:32:15;9.20;;;8.20;;
14346;SDS011;7257;52.158;9.968;2023-03-01T00:32:35;10.40;;;8.98;;
14346;SDS011;7257;52.158;9.968;2023-03-01T00:32:56;12.77;;;9.90;;
14346;SDS011;7257;52.158;9.968;2023-03-01T00:33:18;13.32;;;10.00;;
14346;SDS011;7257;52.158;9.968;2023-03-01T00:33:39;11.85;;;9.48;;
14346;SDS011;7257;52.158;9.968;2023-03-01T00:34:02;12.05;;;8.68;;
14346;SDS011;7257;52.158;9.968;2023-03-01T00:34:24;12.98;;;8.77;;
14346;SDS011;7257;52.158;9.968;2023-03-01T00:34:46;14.18;;;9.10;;
14346;SDS011;7257;52.158;9.968;2023-03-01T00:35:14;12.25;;;9.40;;
14346;SDS011;7257;52.158;9.968;2023-03-01T00:35:35;10.73;;;8.88;;
14346;SDS011;7257;52.158;9.968;2023-03-01T00:35:58;10.23;;;9.10;;
14346;SDS011;7257;52.158;9.968;2023-03-01T00:36:19;12.20;;;8.75;;
14346;SDS011;7257;52.158;9.968;2023-03-01T00:36:41;12.82;;;8.98;;
14346;SDS011;7257;52.158;9.968;2023-03-01T00:37:02;13.65;;;8.82;;
14346;SDS011;7257;52.158;9.968;2023-03-01T00:37:25;12.15;;;8.73;;
14346;SDS011;7257;52.158;9.968;2023-03-01T00:37:46;12.40;;;9.32;;
14346;SDS011;7257;52.158;9.968;2023-03-01T00:38:08;11.27;;;9.13;;
14346;SDS011;7257;52.158;9.968;2023-03-01T00:38:29;10.38;;;9.07;;
14346;SDS011;7257;52.158;9.968;2023-03-01T00:38:50;9.48;;;8.48;;
14346;SDS011;7257;52.158;9.968;2023-03-01T00:39:12;9.98;;;8.98;;
14346;SDS011;7257;52.158;9.968;2023-03-01T00:39:34;9.68;;;8.45;;
14346;SDS011;7257;52.158;9.968;2023-03-01T00:39:56;9.88;;;8.65;;
14346;SDS011;7257;52.158;9.968;2023-03-01T00:40:16;10.65;;;8.50;;
14346;SDS011;7257;52.158;9.968;2023-03-01T00:40:37;10.13;;;8.35;;
14346;SDS011;7257;52.158;9.968;2023-03-01T00:41:02;10.63;;;8.38;;
14346;SDS011;7257;52.158;9.968;2023-03-01T00:41:24;10.27;;;8.40;;
14346;SDS011;7257;52.158;9.968;2023-03-01T00:41:47;10.85;;;7.85;;
14346;SDS011;7257;52.158;9.968;2023-03-01T00:42:08;11.07;;;8.15;;
14346;SDS011;7257;52.158;9.968;2023-03-01T00:42:29;11.10;;;7.80;;
14346;SDS011;7257;52.158;9.968;2023-03-01T00:42:50;10.70;;;8.05;;
14346;SDS011;7257;52.158;9.968;2023-03-01T00:43:12;10.75;;;8.05;;
14346;SDS011;7257;52.158;9.968;2023-03-01T00:43:32;11.30;;;8.20;;
14346;SDS011;7257;52.158;9.968;2023-03-01T00:43:56;11.18;;;7.90;;
14346;SDS011;7257;52.158;9.968;2023-03-01T00:44:17;10.35;;;7.70;;
14346;SDS011;7257;52.158;9.968;2023-03-01T00:44:39;10.32;;;7.75;;
14346;SDS011;7257;52.158;9.968;2023-03-01T00:45:00;10.65;;;7.70;;
14346;SDS011;7257;52.158;9.968;2023-03-01T00:45:21;10.20;;;7.55;;
14346;SDS011;7257;52.158;9.968;2023-03-01T00:45:42;10.75;;;7.95;;
14346;SDS011;7257;52.158;9.968;2023-03-01T00:46:03;10.38;;;8.05;;
14346;SDS011;7257;52.158;9.968;2023-03-01T00:46:28;11.07;;;7.97;;
14346;SDS011;7257;52.158;9.968;2023-03-01T00:46:50;11.65;;;8.02;;
14346;SDS011;7257;52.158;9.968;2023-03-01T00:47:10;10.90;;;8.05;;
14346;SDS011;7257;52.158;9.968;2023-03-01T00:47:31;9.80;;;7.85;;
14346;SDS011;7257;52.158;9.968;2023-03-01T00:47:53;9.40;;;7.72;;
14346;SDS011;7257;52.158;9.968;2023-03-01T00:48:14;9.13;;;7.40;;
14346;SDS011;7257;52.158;9.968;2023-03-01T00:48:35;9.25;;;7.57;;
14346;SDS011;7257;52.158;9.968;2023-03-01T00:48:56;9.55;;;7.68;;
14346;SDS011;7257;52.158;9.968;2023-03-01T00:49:21;11.50;;;8.90;;
14346;SDS011;7257;52.158;9.968;2023-03-01T00:49:44;11.05;;;8.60;;
14346;SDS011;7257;52.158;9.968;2023-03-01T00:50:05;12.00;;;8.50;;
14346;SDS011;7257;52.158;9.968;2023-03-01T00:50:26;11.18;;;8.23;;
14346;SDS011;7257;52.158;9.968;2023-03-01T00:50:47;12.10;;;8.68;;
14346;SDS011;7257;52.158;9.968;2023-03-01T00:51:11;10.85;;;8.43;;
14346;SDS011;7257;52.158;9.968;2023-03-01T00:51:33;11.05;;;8.02;;
14346;SDS011;7257;52.158;9.968;2023-03-01T00:51:54;11.65;;;8.05;;
14346;SDS011;7257;52.158;9.968;2023-03-01T00:52:15;12.80;;;8.70;;
14346;SDS011;7257;52.158;9.968;2023-03-01T00:52:37;12.77;;;8.88;;
14346;SDS011;7257;52.158;9.968;2023-03-01T00:52:58;10.60;;;8.00;;
14346;SDS011;7257;52.158;9.968;2023-03-01T00:53:19;8.73;;;7.05;;
14346;SDS011;7257;52.158;9.968;2023-03-01T00:53:40;8.38;;;7.20;;
14346;SDS011;7257;52.158;9.968;2023-03-01T00:54:02;9.55;;;7.60;;
14346;SDS011;7257;52.158;9.968;2023-03-01T00:54:23;9.25;;;7.90;;
14346;SDS011;7257;52.158;9.968;2023-03-01T00:54:44;9.55;;;7.97;;
14346;SDS011;7257;52.158;9.968;2023-03-01T00:55:06;9.95;;;8.32;;
14346;SDS011;7257;52.158;9.968;2023-03-01T00:55:27;9.90;;;7.90;;
14346;SDS011;7257;52.158;9.968;2023-03-01T00:55:49;10.32;;;7.63;;
14346;SDS011;7257;52.158;9.968;2023-03-01T00:56:11;9.75;;;7.82;;
14346;SDS011;7257;52.158;9.968;2023-03-01T00:56:32;11.23;;;8.00;;
14346;SDS011;7257;52.158;9.968;2023-03-01T00:56:53;10.10;;;8.15;;
14346;SDS011;7257;52.158;9.968;2023-03-01T00:57:14;10.40;;;7.93;;
14346;SDS011;7257;52.158;9.968;2023-03-01T00:57:36;9.32;;;7.95;;
14346;SDS011;7257;52.158;9.968;2023-03-01T00:57:57;9.85;;;8.02;;
14346;SDS011;7257;52.158;9.968;2023-03-01T00:58:18;9.02;;;7.70;;
14346;SDS011;7257;52.158;9.968;2023-03-01T00:58:39;9.35;;;7.72;;
14346;SDS011;7257;52.158;9.968;2023-03-01T00:59:00;9.52;;;7.57;;
14346;SDS011;7257;52.158;9.968;2023-03-01T00:59:22;11.40;;;7.65;;
14346;SDS011;7257;52.158;9.968;2023-03-01T00:59:43;12.00;;;8.05;;
14346;SDS011;7257;52.158;9.968;2023-03-01T01:00:04;11.38;;;8.23;;
14346;SDS011;7257;52.158;9.968;2023-03-01T01:00:26;10.43;;;7.93;;
14346;SDS011;7257;52.158;9.968;2023-03-01T01:00:47;9.23;;;7.85;;
14346;SDS011;7257;52.158;9.968;2023-03-01T01:01:08;9.35;;;7.82;;
14346;SDS011;7257;52.158;9.968;2023-03-01T01:01:37;9.95;;;8.35;;
14346;SDS011;7257;52.158;9.968;2023-03-01T01:01:58;11.38;;;8.73;;
14346;SDS011;7257;52.158;9.968;2023-03-01T01:02:19;12.13;;;9.73;;
14346;SDS011;7257;52.158;9.968;2023-03-01T01:02:40;12.45;;;9.45;;
14346;SDS011;7257;52.158;9.968;2023-03-01T01:03:01;11.43;;;9.20;;
14346;SDS011;7257;52.158;9.968;2023-03-01T01:03:23;11.52;;;9.02;;
14346;SDS011;7257;52.158;9.968;2023-03-01T01:03:45;11.82;;;9.00;;
14346;SDS011;7257;52.158;9.968;2023-03-01T01:04:08;11.23;;;8.88;;
14346;SDS011;7257;52.158;9.968;2023-03-01T01:04:30;11.63;;;8.88;;
14346;SDS011;7257;52.158;9.968;2023-03-01T01:04:52;11.75;;;8.63;;
14346;SDS011;7257;52.158;9.968;2023-03-01T01:05:13;12.07;;;8.73;;
14346;SDS011;7257;52.158;9.968;2023-03-01T01:05:34;11.60;;;8.70;;
14346;SDS011;7257;52.158;9.968;2023-03-01T01:05:55;10.73;;;8.57;;
14346;SDS011;7257;52.158;9.968;2023-03-01T01:06:19;11.40;;;8.45;;
14346;SDS011;7257;52.158;9.968;2023-03-01T01:06:41;10.98;;;8.02;;
14346;SDS011;7257;52.158;9.968;2023-03-01T01:07:04;12.00;;;8.45;;
14346;SDS011;7257;52.158;9.968;2023-03-01T01:07:25;13.38;;;8.25;;
14346;SDS011;7257;52.158;9.968;2023-03-01T01:07:46;13.20;;;8.30;;
14346;SDS011;7257;52.158;9.968;2023-03-01T01:08:08;14.02;;;8.63;;
14346;SDS011;7257;52.158;9.968;2023-03-01T01:08:28;12.40;;;8.90;;
14346;SDS011;7257;52.158;9.968;2023-03-01T01:08:51;12.20;;;8.70;;
14346;SDS011;7257;52.158;9.968;2023-03-01T01:09:13;10.73;;;8.50;;
14346;SDS011;7257;52.158;9.968;2023-03-01T01:09:37;11.93;;;8.50;;
14346;SDS011;7257;52.158;9.968;2023-03-01T01:09:58;11.90;;;8.30;;
14346;SDS011;7257;52.158;9.968;2023-03-01T01:10:19;11.43;;;8.40;;
14346;SDS011;7257;52.158;9.968;2023-03-01T01:10:43;10.48;;;8.30;;
14346;SDS011;7257;52.158;9.968;2023-03-01T01:11:04;10.85;;;8.00;;
14346;SDS011;7257;52.158;9.968;2023-03-01T01:11:26;10.60;;;7.43;;
14346;SDS011;7257;52.158;9.968;2023-03-01T01:11:49;12.90;;;7.70;;
14346;SDS011;7257;52.158;9.968;2023-03-01T01:12:12;12.82;;;8.25;;
14346;SDS011;7257;52.158;9.968;2023-03-01T01:12:33;13.02;;;8.90;;
14346;SDS011;7257;52.158;9.968;2023-03-01T01:12:54;10.73;;;8.70;;
14346;SDS011;7257;52.158;9.968;2023-03-01T01:13:14;11.35;;;8.95;;
14346;SDS011;7257;52.158;9.968;2023-03-01T01:13:35;10.00;;;8.63;;
14346;SDS011;7257;52.158;9.968;2023-03-01T01:13:58;9.80;;;8.70;;
14346;SDS011;7257;52.158;9.968;2023-03-01T01:14:19;11.10;;;7.97;;
14346;SDS011;7257;52.158;9.968;2023-03-01T01:14:40;11.60;;;7.65;;
14346;SDS011;7257;52.158;9.968;2023-03-01T01:15:02;12.95;;;8.13;;
14346;SDS011;7257;52.158;9.968;2023-03-01T01:15:23;10.80;;;8.20;;
14346;SDS011;7257;52.158;9.968;2023-03-01T01:15:44;11.35;;;8.52;;
14346;SDS011;7257;52.158;9.968;2023-03-01T01:16:05;12.43;;;8.95;;
14346;SDS011;7257;52.158;9.968;2023-03-01T01:16:27;13.25;;;9.13;;
14346;SDS011;7257;52.158;9.968;2023-03-01T01:16:49;12.55;;;8.75;;
14346;SDS011;7257;52.158;9.968;2023-03-01T01:17:10;10.43;;;7.85;;
14346;SDS011;7257;52.158;9.968;2023-03-01T01:17:30;9.70;;;7.35;;
14346;SDS011;7257;52.158;9.968;2023-03-01T01:17:51;9.65;;;7.45;;
14346;SDS011;7257;52.158;9.968;2023-03-01T01:18:14;11.20;;;7.72;;
14346;SDS011;7257;52.158;9.968;2023-03-01T01:18:35;11.32;;;8.23;;
14346;SDS011;7257;52.158;9.968;2023-03-01T01:18:56;10.45;;;8.13;;
14346;SDS011;7257;52.158;9.968;2023-03-01T01:19:17;10.10;;;7.95;;
14346;SDS011;7257;52.158;9.968;2023-03-01T01:19:39;9.23;;;7.47;;
14346;SDS011;7257;52.158;9.968;2023-03-01T01:20:00;9.52;;;7.60;;
14346;SDS011;7257;52.158;9.968;2023-03-01T01:20:21;7.90;;;7.00;;
14346;SDS011;7257;52.158;9.968;2023-03-01T01:20:41;8.60;;;7.10;;
14346;SDS011;7257;52.158;9.968;2023-03-01T01:21:03;9.45;;;7.35;;
14346;SDS011;7257;52.158;9.968;2023-03-01T01:21:27;10.25;;;8.05;;
14346;SDS011;7257;52.158;9.968;2023-03-01T01:21:49;9.70;;;7.75;;
14346;SDS011;7257;52.158;9.968;2023-03-01T01:22:10;9.60;;;7.68;;
14346;SDS011;7257;52.158;9.968;2023-03-01T01:22:31;10.23;;;7.80;;
14346;SDS011;7257;52.158;9.968;2023-03-01T01:22:52;10.77;;;8.57;;
14346;SDS011;7257;52.158;9.968;2023-03-01T01:23:14;11.63;;;8.73;;
14346;SDS011;7257;52.158;9.968;2023-03-01T01:23:35;10.43;;;8.57;;
14346;SDS011;7257;52.158;9.968;2023-03-01T01:23:57;10.20;;;8.35;;
14346;SDS011;7257;52.158;9.968;2023-03-01T01:24:18;9.43;;;8.23;;
14346;SDS011;7257;52.158;9.968;2023-03-01T01:24:40;10.40;;;8.20;;
14346;SDS011;7257;52.158;9.968;2023-03-01T01:25:01;10.38;;;7.88;;
14346;SDS011;7257;52.158;9.968;2023-03-01T01:25:22;9.77;;;7.43;;
14346;SDS011;7257;52.158;9.968;2023-03-01T01:25:44;9.80;;;7.00;;
14346;SDS011;7257;52.158;9.968;2023-03-01T01:26:06;8.82;;;7.30;;
14346;SDS011;7257;52.158;9.968;2023-03-01T01:26:30;9.30;;;7.63;;
14346;SDS011;7257;52.158;9.968;2023-03-01T01:26:52;9.98;;;7.90;;
14346;SDS011;7257;52.158;9.968;2023-03-01T01:27:13;9.50;;;7.57;;
14346;SDS011;7257;52.158;9.968;2023-03-01T01:27:34;10.50;;;7.50;;
14346;SDS011;7257;52.158;9.968;2023-03-01T01:27:56;10.10;;;7.80;;
14346;SDS011;7257;52.158;9.968;2023-03-01T01:28:17;10.32;;;8.07;;
14346;SDS011;7257;52.158;9.968;2023-03-01T01:28:38;9.75;;;7.95;;
14346;SDS011;7257;52.158;9.968;2023-03-01T01:28:59;9.25;;;7.10;;
14346;SDS011;7257;52.158;9.968;2023-03-01T01:29:20;9.20;;;7.00;;
14346;SDS011;7257;52.158;9.968;2023-03-01T01:29:42;9.60;;;7.35;;
14346;SDS011;7257;52.158;9.968;2023-03-01T01:30:04;10.45;;;8.18;;
14346;SDS011;7257;52.158;9.968;2023-03-01T01:30:25;10.90;;;8.20;;
14346;SDS011;7257;52.158;9.968;2023-03-01T01:30:46;10.65;;;7.70;;
14346;SDS011;7257;52.158;9.968;2023-03-01T01:31:07;10.63;;;7.72;;
14346;SDS011;7257;52.158;9.968;2023-03-01T01:31:29;10.30;;;7.28;;
14346;SDS011;7257;52.158;9.968;2023-03-01T01:31:51;10.55;;;7.75;;
14346;SDS011;7257;52.158;9.968;2023-03-01T01:32:12;10.88;;;7.93;;
14346;SDS011;7257;52.158;9.968;2023-03-01T01:32:32;11.03;;;8.37;;
14346;SDS011;7257;52.158;9.968;2023-03-01T01:32:54;10.50;;;7.90;;
14346;SDS011;7257;52.158;9.968;2023-03-01T01:33:15;11.15;;;8.00;;
14346;SDS011;7257;52.158;9.968;2023-03-01T01:33:36;11.15;;;7.82;;
14346;SDS011;7257;52.158;9.968;2023-03-01T01:33:58;11.02;;;8.07;;
14346;SDS011;7257;52.158;9.968;2023-03-01T01:34:21;10.40;;;7.63;;
14346;SDS011;7257;52.158;9.968;2023-03-01T01:34:42;10.68;;;7.75;;
14346;SDS011;7257;52.158;9.968;2023-03-01T01:35:03;11.48;;;8.32;;
14346;SDS011;7257;52.158;9.968;2023-03-01T01:35:24;11.13;;;8.43;;
14346;SDS011;7257;52.158;9.968;2023-03-01T01:35:46;11.85;;;8.82;;
14346;SDS011;7257;52.158;9.968;2023-03-01T01:36:07;11.15;;;7.95;;
14346;SDS011;7257;52.158;9.968;2023-03-01T01:36:30;12.18;;;8.07;;
14346;SDS011;7257;52.158;9.968;2023-03-01T01:36:52;10.95;;;7.78;;
14346;SDS011;7257;52.158;9.968;2023-03-01T01:37:14;11.13;;;8.10;;
14346;SDS011;7257;52.158;9.968;2023-03-01T01:37:35;10.60;;;8.98;;
14346;SDS011;7257;52.158;9.968;2023-03-01T01:37:56;10.18;;;9.00;;
14346;SDS011;7257;52.158;9.968;2023-03-01T01:38:17;10.25;;;8.90;;
14346;SDS011;7257;52.158;9.968;2023-03-01T01:38:38;10.48;;;8.63;;
14346;SDS011;7257;52.158;9.968;2023-03-01T01:38:59;11.05;;;8.77;;
14346;SDS011;7257;52.158;9.968;2023-03-01T01:39:21;10.25;;;8.38;;
14346;SDS011;7257;52.158;9.968;2023-03-01T01:39:42;10.60;;;7.85;;
14346;SDS011;7257;52.158;9.968;2023-03-01T01:40:04;9.75;;;7.47;;
14346;SDS011;7257;52.158;9.968;2023-03-01T01:40:26;9.82;;;7.88;;
14346;SDS011;7257;52.158;9.968;2023-03-01T01:40:47;9.35;;;7.90;;
14346;SDS011;7257;52.158;9.968;2023-03-01T01:41:11;11.38;;;8.05;;
14346;SDS011;7257;52.158;9.968;2023-03-01T01:41:33;11.55;;;8.13;;
14346;SDS011;7257;52.158;9.968;2023-03-01T01:41:53;11.80;;;8.25;;
14346;SDS011;7257;52.158;9.968;2023-03-01T01:42:15;9.52;;;7.78;;
14346;SDS011;7257;52.158;9.968;2023-03-01T01:42:38;10.13;;;7.97;;
14346;SDS011;7257;52.158;9.968;2023-03-01T01:42:59;11.95;;;8.60;;
14346;SDS011;7257;52.158;9.968;2023-03-01T01:43:20;11.98;;;8.82;;
14346;SDS011;7257;52.158;9.968;2023-03-01T01:43:44;11.65;;;8.75;;
14346;SDS011;7257;52.158;9.968;2023-03-01T01:44:12;9.18;;;7.95;;
14346;SDS011;7257;52.158;9.968;2023-03-01T01:44:34;9.25;;;7.43;;
14346;SDS011;7257;52.158;9.968;2023-03-01T01:45:54;9.98;;;7.80;;
14346;SDS011;7257;52.158;9.968;2023-03-01T01:46:20;11.38;;;8.40;;
14346;SDS011;7257;52.158;9.968;2023-03-01T01:46:47;10.20;;;8.23;;
14346;SDS011;7257;52.158;9.968;2023-03-01T01:47:13;10.52;;;8.30;;
14346;SDS011;7257;52.158;9.968;2023-03-01T01:47:38;12.27;;;8.48;;
14346;SDS011;7257;52.158;9.968;2023-03-01T01:48:00;13.23;;;8.02;;
14346;SDS011;7257;52.158;9.968;2023-03-01T01:48:27;10.40;;;7.60;;
14346;SDS011;7257;52.158;9.968;2023-03-01T01:49:00;9.68;;;7.95;;
14346;SDS011;7257;52.158;9.968;2023-03-01T01:49:26;10.40;;;8.63;;
14346;SDS011;7257;52.158;9.968;2023-03-01T01:49:53;11.07;;;8.40;;
14346;SDS011;7257;52.158;9.968;2023-03-01T01:50:16;11.07;;;8.00;;
14346;SDS011;7257;52.158;9.968;2023-03-01T01:50:39;12.30;;;8.75;;
14346;SDS011;7257;52.158;9.968;2023-03-01T01:51:04;12.35;;;8.75;;
14346;SDS011;7257;52.158;9.968;2023-03-01T01:51:28;12.32;;;8.85;;
14346;SDS011;7257;52.158;9.968;2023-03-01T01:52:00;13.05;;;9.23;;
14346;SDS011;7257;52.158;9.968;2023-03-01T01:52:27;12.82;;;9.18;;
14346;SDS011;7257;52.158;9.968;2023-03-01T01:52:51;12.90;;;9.38;;
14346;SDS011;7257;52.158;9.968;2023-03-01T01:53:15;12.52;;;9.20;;
14346;SDS011;7257;52.158;9.968;2023-03-01T01:53:39;12.02;;;9.43;;
14346;SDS011;7257;52.158;9.968;2023-03-01T01:54:01;12.57;;;9.20;;
14346;SDS011;7257;52.158;9.968;2023-03-01T01:54:23;13.18;;;9.15;;
14346;SDS011;7257;52.158;9.968;2023-03-01T01:54:49;11.95;;;8.85;;
14346;SDS011;7257;52.158;9.968;2023-03-01T01:55:14;10.50;;;8.80;;
14346;SDS011;7257;52.158;9.968;2023-03-01T01:55:42;10.95;;;9.07;;
14346;SDS011;7257;52.158;9.968;2023-03-01T01:56:07;12.13;;;9.15;;
14346;SDS011;7257;52.158;9.968;2023-03-01T01:56:31;11.48;;;9.27;;
14346;SDS011;7257;52.158;9.968;2023-03-01T01:56:55;11.73;;;9.68;;
14346;SDS011;7257;52.158;9.968;2023-03-01T01:57:21;11.90;;;8.82;;
14346;SDS011;7257;52.158;9.968;2023-03-01T01:57:46;11.70;;;8.40;;
14346;SDS011;7257;52.158;9.968;2023-03-01T01:58:09;12.15;;;8.35;;
14346;SDS011;7257;52.158;9.968;2023-03-01T01:58:32;12.30;;;8.10;;
14346;SDS011;7257;52.158;9.968;2023-03-01T01:58:54;10.95;;;8.90;;
14346;SDS011;7257;52.158;9.968;2023-03-01T01:59:16;10.48;;;9.10;;
14346;SDS011;7257;52.158;9.968;2023-03-01T01:59:37;10.23;;;9.10;;
14346;SDS011;7257;52.158;9.968;2023-03-01T02:00:09;10.15;;;8.43;;
14346;SDS011;7257;52.158;9.968;2023-03-01T02:00:33;10.38;;;8.63;;
14346;SDS011;7257;52.158;9.968;2023-03-01T02:00:54;11.90;;;8.88;;
14346;SDS011;7257;52.158;9.968;2023-03-01T02:01:15;11.85;;;7.82;;
14346;SDS011;7257;52.158;9.968;2023-03-01T02:01:36;12.55;;;7.72;;
14346;SDS011;7257;52.158;9.968;2023-03-01T02:01:58;13.05;;;7.68;;
14346;SDS011;7257;52.158;9.968;2023-03-01T02:02:20;14.05;;;8.50;;
14346;SDS011;7257;52.158;9.968;2023-03-01T02:02:41;13.63;;;8.63;;
14346;SDS011;7257;52.158;9.968;2023-03-01T02:03:07;12.00;;;8.63;;
14346;SDS011;7257;52.158;9.968;2023-03-01T02:03:31;11.55;;;8.75;;
14346;SDS011;7257;52.158;9.968;2023-03-01T02:03:57;12.25;;;8.27;;
14346;SDS011;7257;52.158;9.968;2023-03-01T02:04:18;10.73;;;7.70;;
14346;SDS011;7257;52.158;9.968;2023-03-01T02:04:41;10.70;;;7.50;;
14346;SDS011;7257;52.158;9.968;2023-03-01T02:05:05;10.25;;;8.07;;
14346;SDS011;7257;52.158;9.968;2023-03-01T02:05:36;8.88;;;7.80;;
14346;SDS011;7257;52.158;9.968;2023-03-01T02:06:03;9.30;;;7.57;;
14346;SDS011;7257;52.158;9.968;2023-03-01T02:06:29;11.45;;;8.13;;
14346;SDS011;7257;52.158;9.968;2023-03-01T02:06:54;12.15;;;7.90;;
14346;SDS011;7257;52.158;9.968;2023-03-01T02:07:21;11.35;;;7.50;;
14346;SDS011;7257;52.158;9.968;2023-03-01T02:07:43;10.18;;;7.07;;
14346;SDS011;7257;52.158;9.968;2023-03-01T02:08:06;11.18;;;7.57;;
14346;SDS011;7257;52.158;9.968;2023-03-01T02:08:30;11.20;;;7.90;;
14346;SDS011;7257;52.158;9.968;2023-03-01T02:08:53;10.27;;;7.93;;
14346;SDS011;7257;52.158;9.968;2023-03-01T02:09:15;8.85;;;7.95;;
14346;SDS011;7257;52.158;9.968;2023-03-01T02:09:39;9.52;;;7.90;;
14346;SDS011;7257;52.158;9.968;2023-03-01T02:10:05;10.82;;;7.75;;
14346;SDS011;7257;52.158;9.968;2023-03-01T02:10:27;11.02;;;8.02;;
14346;SDS011;7257;52.158;9.968;2023-03-01T02:10:49;11.00;;;8.60;;
14346;SDS011;7257;52.158;9.968;2023-03-01T02:11:12;12.23;;;8.85;;
14346;SDS011;7257;52.158;9.968;2023-03-01T02:11:34;12.77;;;8.75;;
14346;SDS011;7257;52.158;9.968;2023-03-01T02:11:57;11.55;;;8.25;;
14346;SDS011;7257;52.158;9.968;2023-03-01T02:12:20;11.68;;;8.52;;
14346;SDS011;7257;52.158;9.968;2023-03-01T02:12:44;10.98;;;8.10;;
14346;SDS011;7257;52.158;9.968;2023-03-01T02:13:05;10.73;;;8.20;;
14346;SDS011;7257;52.158;9.968;2023-03-01T02:13:27;10.23;;;7.90;;
14346;SDS011;7257;52.158;9.968;2023-03-01T02:13:49;10.68;;;7.90;;
14346;SDS011;7257;52.158;9.968;2023-03-01T02:14:11;10.88;;;8.00;;
14346;SDS011;7257;52.158;9.968;2023-03-01T02:14:32;11.02;;;8.07;;
14346;SDS011;7257;52.158;9.968;2023-03-01T02:14:52;10.90;;;8.60;;